Time;durP1;ratioP1;P1;durP2;ratioP2;P2;SDS_P1;SDS_P2;PMS_P1;PMS_P2;Temp;Humidity;BMP_temperature;BMP_pressure;BME280_temperature;BME280_humidity;BME280_pressure;Samples;Min_cycle;Max_cycle;Signal;HPM_P1;HPM_P2
2022/03/10 00:02:21;;;;;;;;;;;3.00;97.10;;;;;;5098924;28;20085;-79
2022/03/10 00:04:46;;;;;;;;;;;1.90;96.80;;;;;;5098951;28;19915;-79
2022/03/10 00:07:12;;;;;;;;;;;1.90;96.80;;;;;;5098683;28;19923;-79
2022/03/10 00:09:38;;;;;;;;;;;1.90;96.80;;;;;;5098538;28;20379;-78
2022/03/10 00:12:03;;;;;;;;;;;2.20;96.90;;;;;;5098803;28;19908;-79
2022/03/10 00:14:29;;;;;;;;;;;1.90;97.00;;;;;;5098838;28;19976;-79
2022/03/10 00:16:55;;;;;;;;;;;1.90;97.10;;;;;;5098675;28;19969;-79
2022/03/10 00:19:21;;;;;;;;;;;1.90;97.10;;;;;;5098776;28;19908;-79
2022/03/10 00:21:47;;;;;;;;;;;1.80;97.00;;;;;;5098589;28;20317;-79
2022/03/10 00:24:14;;;;;;;;;;;1.80;96.90;;;;;;5100023;28;19918;-79
2022/03/10 00:26:43;;;;;;;;;;;3.50;97.20;;;;;;5084648;28;20306;-79
2022/03/10 00:29:09;;;;;;;;;;;1.90;96.80;;;;;;5102656;28;20664;-79
2022/03/10 00:31:34;;;;;;;;;;;1.90;96.90;;;;;;5086733;28;20023;-79
2022/03/10 00:34:00;;;;;;;;;;;2.20;96.90;;;;;;5104954;28;19915;-79
2022/03/10 00:36:26;;;;;;;;;;;1.90;97.00;;;;;;5104659;28;19915;-79
2022/03/10 00:38:51;;;;;;;;;;;1.90;96.90;;;;;;5104226;28;19919;-79
2022/03/10 00:41:17;;;;;;;;;;;2.10;96.90;;;;;;5104847;28;19908;-79
2022/03/10 00:43:43;;;;;;;;;;;2.00;96.90;;;;;;5084125;28;19907;-79
2022/03/10 00:46:09;;;;;;;;;;;2.00;96.80;;;;;;5084143;28;20022;-79
2022/03/10 00:48:34;;;;;;;;;;;1.90;96.90;;;;;;5102584;28;19908;-79
2022/03/10 00:51:00;;;;;;;;;;;1.90;97.00;;;;;;5103199;28;19938;-79
2022/03/10 00:53:25;;;;;;;;;;;1.80;97.00;;;;;;5083679;28;19924;-80
2022/03/10 00:55:51;;;;;;;;;;;1.90;97.20;;;;;;5102447;28;20512;-79
2022/03/10 00:58:16;;;;;;;;;;;1.90;97.20;;;;;;5084063;28;19915;-79
2022/03/10 01:00:42;;;;;;;;;;;1.90;97.30;;;;;;5083864;28;19908;-79
2022/03/10 01:03:08;;;;;;;;;;;1.90;97.20;;;;;;5102409;28;19915;-79
2022/03/10 01:05:35;;;;;;;;;;;1.90;97.10;;;;;;5101991;28;19907;-79
2022/03/10 01:08:01;;;;;;;;;;;1.90;96.90;;;;;;5101505;28;19919;-79
2022/03/10 01:10:26;;;;;;;;;;;1.80;96.70;;;;;;5083430;28;20145;-79
2022/03/10 01:12:52;;;;;;;;;;;1.90;96.70;;;;;;5101830;28;19915;-79
2022/03/10 01:15:20;;;;;;;;;;;1.90;96.90;;;;;;5083756;28;19959;-79
2022/03/10 01:17:45;;;;;;;;;;;1.90;96.90;;;;;;5083776;28;20192;-79
2022/03/10 01:20:11;;;;;;;;;;;1.90;97.10;;;;;;5084367;28;19981;-79
2022/03/10 01:22:37;;;;;;;;;;;1.90;97.20;;;;;;5083878;28;20213;-79
2022/03/10 01:25:04;;;;;;;;;;;1.90;97.10;;;;;;5102453;28;20291;-79
2022/03/10 01:27:29;;;;;;;;;;;1.90;97.00;;;;;;5102502;28;20382;-79
2022/03/10 01:29:55;;;;;;;;;;;2.40;97.20;;;;;;5083306;28;19911;-79
2022/03/10 01:32:21;;;;;;;;;;;1.90;97.20;;;;;;5102596;28;19918;-79
2022/03/10 01:34:46;;;;;;;;;;;1.90;97.50;;;;;;5090001;28;20386;-79
2022/03/10 01:37:13;;;;;;;;;;;1.90;97.50;;;;;;5106384;28;20263;-79
2022/03/10 01:39:38;;;;;;;;;;;1.90;97.40;;;;;;5102006;28;19918;-79
2022/03/10 01:42:06;;;;;;;;;;;3.00;97.50;;;;;;5083520;28;20617;-79
2022/03/10 01:44:32;;;;;;;;;;;1.90;97.00;;;;;;5083316;28;20531;-79
2022/03/10 01:46:58;;;;;;;;;;;1.80;97.10;;;;;;5101782;28;19931;-79
2022/03/10 01:49:23;;;;;;;;;;;1.80;97.40;;;;;;5101728;28;20085;-79
2022/03/10 01:51:49;;;;;;;;;;;1.80;97.10;;;;;;5101559;28;19976;-79
2022/03/10 01:54:15;;;;;;;;;;;1.80;97.00;;;;;;5101449;28;19927;-79
2022/03/10 01:56:41;;;;;;;;;;;1.80;97.20;;;;;;5100988;28;19961;-79
2022/03/10 01:59:07;;;;;;;;;;;1.80;97.20;;;;;;5101330;28;20123;-79
2022/03/10 02:01:33;;;;;;;;;;;1.80;97.40;;;;;;5101404;28;20100;-79
2022/03/10 02:03:58;;;;;;;;;;;1.80;97.40;;;;;;5101140;28;19908;-79
2022/03/10 02:06:24;;;;;;;;;;;1.80;97.40;;;;;;5100969;28;20011;-79
2022/03/10 02:11:36;;;;;;;;;;;1.90;97.70;;;;;;5101041;28;19968;-79
2022/03/10 02:17:19;;;;;;;;;;;1.80;97.50;;;;;;5100805;28;19916;-79
2022/03/10 02:19:31;;;;;;;;;;;1.90;97.60;;;;;;5102342;28;19918;-79
2022/03/10 02:21:57;;;;;;;;;;;1.90;97.20;;;;;;5101971;28;19908;-79
2022/03/10 02:24:24;;;;;;;;;;;1.80;96.90;;;;;;5101356;28;20200;-78
2022/03/10 02:26:49;;;;;;;;;;;1.80;96.90;;;;;;5101466;28;20084;-79
2022/03/10 02:29:15;;;;;;;;;;;1.80;96.70;;;;;;5102632;28;19907;-79
2022/03/10 02:31:41;;;;;;;;;;;2.10;96.60;;;;;;5105127;28;19912;-79
2022/03/10 02:34:08;;;;;;;;;;;1.80;96.50;;;;;;5105394;28;20617;-79
2022/03/10 02:36:34;;;;;;;;;;;1.80;96.50;;;;;;5086716;27;20354;-79
2022/03/10 02:39:00;;;;;;;;;;;2.50;96.70;;;;;;5105103;28;19918;-79
2022/03/10 02:41:25;;;;;;;;;;;1.80;96.60;;;;;;5100224;28;19919;-79
2022/03/10 02:43:51;;;;;;;;;;;1.80;96.80;;;;;;5100463;28;20219;-79
2022/03/10 02:46:16;;;;;;;;;;;1.80;96.80;;;;;;5100992;28;19931;-79
2022/03/10 02:48:42;;;;;;;;;;;1.80;96.90;;;;;;5100457;28;20394;-79
2022/03/10 02:51:07;;;;;;;;;;;1.80;97.20;;;;;;5100133;28;20609;-79
2022/03/10 02:53:33;;;;;;;;;;;1.80;97.40;;;;;;5099498;28;20437;-79
2022/03/10 02:55:58;;;;;;;;;;;1.80;97.30;;;;;;5099776;28;19999;-79
2022/03/10 02:58:24;;;;;;;;;;;1.80;97.20;;;;;;5099788;28;19934;-79
2022/03/10 03:00:50;;;;;;;;;;;1.80;97.10;;;;;;5099509;28;19918;-79
2022/03/10 03:03:16;;;;;;;;;;;1.80;96.80;;;;;;5099095;28;20429;-79
2022/03/10 03:05:42;;;;;;;;;;;2.50;96.90;;;;;;5081177;28;19915;-79
2022/03/10 03:08:08;;;;;;;;;;;1.80;96.60;;;;;;5081201;28;19916;-79
2022/03/10 03:10:36;;;;;;;;;;;1.80;96.90;;;;;;5080897;28;19914;-79
2022/03/10 03:13:02;;;;;;;;;;;1.80;97.00;;;;;;5081075;28;19953;-79
2022/03/10 03:15:28;;;;;;;;;;;1.70;96.90;;;;;;5100192;28;19912;-79
2022/03/10 03:17:54;;;;;;;;;;;1.80;96.80;;;;;;5099782;28;19931;-79
2022/03/10 03:20:19;;;;;;;;;;;1.70;96.80;;;;;;5081781;28;19938;-79
2022/03/10 03:22:45;;;;;;;;;;;1.80;96.90;;;;;;5100554;28;19912;-79
2022/03/10 03:25:12;;;;;;;;;;;1.80;97.20;;;;;;5100349;28;19912;-78
2022/03/10 03:27:38;;;;;;;;;;;1.70;96.90;;;;;;5082579;28;19991;-79
2022/03/10 03:30:05;;;;;;;;;;;1.80;97.10;;;;;;5099933;28;19990;-79
2022/03/10 03:32:31;;;;;;;;;;;1.80;97.30;;;;;;5100763;28;20378;-79
2022/03/10 03:34:57;;;;;;;;;;;1.80;97.40;;;;;;5100455;28;19916;-79
2022/03/10 03:37:22;;;;;;;;;;;1.80;97.30;;;;;;5100027;28;20104;-79
2022/03/10 03:39:48;;;;;;;;;;;1.80;97.20;;;;;;5100469;28;19939;-79
2022/03/10 03:42:14;;;;;;;;;;;1.80;97.30;;;;;;5100205;28;19973;-79
2022/03/10 03:44:40;;;;;;;;;;;1.80;97.20;;;;;;5082340;28;19912;-78
2022/03/10 03:47:05;;;;;;;;;;;1.80;97.00;;;;;;5104200;28;19954;-80
2022/03/10 03:49:31;;;;;;;;;;;1.80;97.20;;;;;;5106791;28;19911;-79
2022/03/10 03:51:56;;;;;;;;;;;1.80;97.20;;;;;;5100788;28;19908;-79
2022/03/10 03:54:24;;;;;;;;;;;1.80;97.30;;;;;;5100105;28;20362;-79
2022/03/10 03:56:50;;;;;;;;;;;2.20;97.30;;;;;;5099469;28;19907;-79
2022/03/10 03:59:15;;;;;;;;;;;1.80;97.10;;;;;;5080081;28;19923;-79
2022/03/10 04:01:41;;;;;;;;;;;1.80;97.40;;;;;;5099555;28;20337;-79
2022/03/10 04:04:07;;;;;;;;;;;1.80;97.00;;;;;;5099372;28;19908;-79
2022/03/10 04:06:32;;;;;;;;;;;1.80;97.00;;;;;;5099576;28;19981;-79
2022/03/10 04:08:58;;;;;;;;;;;1.60;97.00;;;;;;5099388;28;19908;-79
2022/03/10 04:11:24;;;;;;;;;;;2.70;97.40;;;;;;5107130;28;19908;-81
2022/03/10 04:13:50;;;;;;;;;;;1.80;97.30;;;;;;5106122;28;20286;-79
2022/03/10 04:16:15;;;;;;;;;;;1.80;97.20;;;;;;5088570;28;19912;-79
2022/03/10 04:18:41;;;;;;;;;;;1.80;97.20;;;;;;5103124;28;19953;-79
2022/03/10 04:21:07;;;;;;;;;;;1.80;97.20;;;;;;5099302;28;19915;-79
2022/03/10 04:23:32;;;;;;;;;;;1.80;97.30;;;;;;5081087;28;19916;-80
2022/03/10 04:25:58;;;;;;;;;;;1.80;97.20;;;;;;5080837;28;20147;-79
2022/03/10 04:28:23;;;;;;;;;;;1.80;97.20;;;;;;5080972;28;20613;-79
2022/03/10 04:30:50;;;;;;;;;;;1.80;97.10;;;;;;5099430;28;20143;-79
2022/03/10 04:33:16;;;;;;;;;;;1.80;97.40;;;;;;5099916;28;20385;-78
2022/03/10 04:35:41;;;;;;;;;;;2.00;97.50;;;;;;5079928;28;19962;-79
2022/03/10 04:38:07;;;;;;;;;;;1.80;97.50;;;;;;5098756;28;20219;-79
2022/03/10 04:40:33;;;;;;;;;;;2.50;97.70;;;;;;5098556;28;20218;-80
2022/03/10 04:42:59;;;;;;;;;;;1.80;97.60;;;;;;5098922;28;19939;-79
2022/03/10 04:45:24;;;;;;;;;;;1.80;97.60;;;;;;5080460;28;19974;-79
2022/03/10 04:47:50;;;;;;;;;;;1.80;97.60;;;;;;5098468;28;19916;-79
2022/03/10 04:50:16;;;;;;;;;;;1.80;97.40;;;;;;5097980;28;20109;-79
2022/03/10 04:52:42;;;;;;;;;;;1.80;97.40;;;;;;5079738;28;20002;-79
2022/03/10 04:55:10;;;;;;;;;;;1.80;97.50;;;;;;5098087;28;20014;-79
2022/03/10 04:57:35;;;;;;;;;;;1.80;97.70;;;;;;5080033;28;20577;-79
2022/03/10 05:00:05;;;;;;;;;;;1.80;97.70;;;;;;5098699;28;19950;-79
2022/03/10 05:02:31;;;;;;;;;;;1.80;98.00;;;;;;5098926;28;20652;-79
2022/03/10 05:04:56;;;;;;;;;;;1.80;98.00;;;;;;5098964;28;19908;-79
2022/03/10 05:07:22;;;;;;;;;;;1.80;98.00;;;;;;5081208;28;19916;-79
2022/03/10 05:09:47;;;;;;;;;;;1.90;97.90;;;;;;5100463;28;20002;-79
2022/03/10 05:12:13;;;;;;;;;;;1.90;97.80;;;;;;5084785;28;20104;-79
2022/03/10 05:14:40;;;;;;;;;;;1.90;97.70;;;;;;5084084;28;19920;-78
2022/03/10 05:17:06;;;;;;;;;;;1.90;97.70;;;;;;5103204;28;20010;-79
2022/03/10 05:19:31;;;;;;;;;;;1.90;97.80;;;;;;5104066;28;19971;-79
2022/03/10 05:21:57;;;;;;;;;;;1.90;97.70;;;;;;5103449;28;19908;-79
2022/03/10 05:24:22;;;;;;;;;;;1.50;97.50;;;;;;5103838;28;20454;-79
2022/03/10 05:26:48;;;;;;;;;;;1.90;97.70;;;;;;5104140;28;19908;-79
2022/03/10 05:29:13;;;;;;;;;;;1.80;97.70;;;;;;5103184;28;20291;-79
2022/03/10 05:31:39;;;;;;;;;;;1.80;97.70;;;;;;5084499;28;19972;-79
2022/03/10 05:34:05;;;;;;;;;;;1.90;97.80;;;;;;5103001;28;19943;-79
2022/03/10 05:36:31;;;;;;;;;;;1.80;98.00;;;;;;5102888;28;19907;-79
2022/03/10 05:38:56;;;;;;;;;;;1.80;98.00;;;;;;5103496;28;19968;-79
2022/03/10 05:41:22;;;;;;;;;;;1.90;97.80;;;;;;5102954;28;19907;-79
2022/03/10 05:43:47;;;;;;;;;;;1.90;98.00;;;;;;5103935;28;19919;-79
2022/03/10 05:46:13;;;;;;;;;;;2.50;98.00;;;;;;5110323;28;20039;-79
2022/03/10 05:48:38;;;;;;;;;;;1.90;97.80;;;;;;5112907;28;20367;-79
2022/03/10 05:51:04;;;;;;;;;;;2.00;97.60;;;;;;5112016;28;20354;-79
2022/03/10 05:53:29;;;;;;;;;;;1.90;97.70;;;;;;5106527;28;19911;-80
2022/03/10 05:55:55;;;;;;;;;;;2.00;97.60;;;;;;5105506;28;20405;-79
2022/03/10 05:58:20;;;;;;;;;;;2.00;97.50;;;;;;5087359;28;20333;-79
2022/03/10 06:00:46;;;;;;;;;;;2.10;96.00;;;;;;5111132;28;19908;-79
2022/03/10 06:03:12;;;;;;;;;;;2.10;96.40;;;;;;5104182;28;19908;-79
2022/03/10 06:05:37;;;;;;;;;;;2.10;96.30;;;;;;5086330;28;20410;-79
2022/03/10 06:08:04;;;;;;;;;;;2.20;96.20;;;;;;5102845;28;20435;-79
2022/03/10 06:10:30;;;;;;;;;;;2.20;96.10;;;;;;5083955;28;19912;-79
2022/03/10 06:12:55;;;;;;;;;;;2.20;96.30;;;;;;5102955;28;19965;-79
2022/03/10 06:15:21;;;;;;;;;;;2.30;96.00;;;;;;5102812;28;19973;-79
2022/03/10 06:17:46;;;;;;;;;;;2.30;95.40;;;;;;5102664;28;19908;-79
2022/03/10 06:20:12;;;;;;;;;;;2.30;94.50;;;;;;5102815;28;20022;-79
2022/03/10 06:22:38;;;;;;;;;;;2.30;94.50;;;;;;5101743;28;19947;-79
2022/03/10 06:25:04;;;;;;;;;;;2.40;94.60;;;;;;5102738;28;19939;-79
2022/03/10 06:27:30;;;;;;;;;;;4.40;94.80;;;;;;5101844;28;19908;-79
2022/03/10 06:29:56;;;;;;;;;;;2.50;94.30;;;;;;5102099;28;20378;-79
2022/03/10 06:32:22;;;;;;;;;;;2.10;94.10;;;;;;5101438;28;20647;-79
2022/03/10 06:34:50;;;;;;;;;;;2.70;94.10;;;;;;5100554;28;20859;-79
2022/03/10 06:37:16;;;;;;;;;;;2.40;94.10;;;;;;5101568;28;20007;-79
2022/03/10 06:39:41;;;;;;;;;;;2.80;93.80;;;;;;5083343;28;20205;-79
2022/03/10 06:42:09;;;;;;;;;;;2.90;93.90;;;;;;5101679;28;20002;-79
2022/03/10 06:44:36;;;;;;;;;;;2.80;93.70;;;;;;5083364;28;19908;-79
2022/03/10 06:47:06;;;;;;;;;;;2.80;93.50;;;;;;5101670;28;20066;-79
2022/03/10 06:49:32;;;;;;;;;;;2.80;93.30;;;;;;5083272;28;20014;-79
2022/03/10 06:51:57;;;;;;;;;;;2.90;93.90;;;;;;5102737;28;19966;-78
2022/03/10 06:54:23;;;;;;;;;;;2.90;92.80;;;;;;5083199;28;20362;-79
2022/03/10 06:56:48;;;;;;;;;;;2.80;92.40;;;;;;5100979;28;19908;-79
2022/03/10 06:59:14;;;;;;;;;;;2.80;93.10;;;;;;5101478;28;19915;-79
2022/03/10 07:01:40;;;;;;;;;;;2.80;92.90;;;;;;5101323;28;19908;-79
2022/03/10 07:04:06;;;;;;;;;;;2.80;92.50;;;;;;5084766;28;20310;-78
2022/03/10 07:06:31;;;;;;;;;;;2.90;92.40;;;;;;5087627;28;19919;-79
2022/03/10 07:08:57;;;;;;;;;;;2.90;92.00;;;;;;5106635;28;20350;-78
2022/03/10 07:11:23;;;;;;;;;;;3.00;92.00;;;;;;5108130;28;20196;-79
2022/03/10 07:13:49;;;;;;;;;;;3.00;92.10;;;;;;5106223;28;20128;-79
2022/03/10 07:16:14;;;;;;;;;;;3.10;92.40;;;;;;5106776;28;19914;-79
2022/03/10 07:18:40;;;;;;;;;;;3.20;92.70;;;;;;5089668;28;19919;-79
2022/03/10 07:21:06;;;;;;;;;;;3.10;92.50;;;;;;5107320;28;20424;-79
2022/03/10 07:23:32;;;;;;;;;;;3.00;92.70;;;;;;5107537;28;19908;-78
2022/03/10 07:25:57;;;;;;;;;;;2.90;93.00;;;;;;5106459;28;20366;-78
2022/03/10 07:28:23;;;;;;;;;;;3.80;93.30;;;;;;5100334;28;20479;-79
2022/03/10 07:30:49;;;;;;;;;;;3.10;93.50;;;;;;5081246;28;19914;-79
2022/03/10 07:33:15;;;;;;;;;;;3.00;93.60;;;;;;5099600;28;19929;-79
2022/03/10 07:35:40;;;;;;;;;;;3.00;94.20;;;;;;5100047;28;20382;-79
2022/03/10 07:38:06;;;;;;;;;;;3.00;94.60;;;;;;5100063;28;19908;-79
2022/03/10 07:40:31;;;;;;;;;;;2.80;95.10;;;;;;5099862;28;19941;-79
2022/03/10 07:42:57;;;;;;;;;;;2.80;95.70;;;;;;5099849;28;19915;-79
2022/03/10 07:45:25;;;;;;;;;;;2.90;96.20;;;;;;5100040;28;19914;-79
2022/03/10 07:47:52;;;;;;;;;;;2.80;96.80;;;;;;5100020;28;19973;-79
2022/03/10 07:50:18;;;;;;;;;;;2.80;97.40;;;;;;5099111;28;19953;-79
2022/03/10 07:52:43;;;;;;;;;;;2.80;97.50;;;;;;5100312;28;20348;-79
2022/03/10 07:55:13;;;;;;;;;;;2.90;97.30;;;;;;5101029;28;20431;-79
2022/03/10 07:57:41;;;;;;;;;;;3.00;97.20;;;;;;5100426;28;20200;-79
2022/03/10 08:00:07;;;;;;;;;;;3.10;97.20;;;;;;5100538;28;19912;-79
2022/03/10 08:02:33;;;;;;;;;;;3.10;96.90;;;;;;5100705;28;20328;-79
2022/03/10 08:04:58;;;;;;;;;;;3.20;96.80;;;;;;5100842;28;19915;-79
2022/03/10 08:07:24;;;;;;;;;;;3.20;96.70;;;;;;5100781;28;20382;-78
2022/03/10 08:09:49;;;;;;;;;;;3.10;97.50;;;;;;5100584;28;19912;-79
2022/03/10 08:12:15;;;;;;;;;;;3.00;97.70;;;;;;5100464;28;19908;-79
2022/03/10 08:14:40;;;;;;;;;;;3.00;98.30;;;;;;5107173;28;19932;-79
2022/03/10 08:17:06;;;;;;;;;;;2.80;98.90;;;;;;5103895;28;20305;-79
2022/03/10 08:19:32;;;;;;;;;;;2.90;99.40;;;;;;5101222;28;19908;-79
2022/03/10 08:21:59;;;;;;;;;;;2.60;99.90;;;;;;5101323;28;20128;-78
2022/03/10 08:24:28;;;;;;;;;;;2.50;99.90;;;;;;5100575;28;20014;-79
2022/03/10 08:26:53;;;;;;;;;;;2.50;99.90;;;;;;5081668;28;20407;-79
2022/03/10 08:29:19;;;;;;;;;;;2.40;99.90;;;;;;5099806;28;19957;-79
2022/03/10 08:31:45;;;;;;;;;;;2.30;99.90;;;;;;5081138;28;19977;-79
2022/03/10 08:34:10;;;;;;;;;;;2.20;99.90;;;;;;5099099;28;19916;-79
2022/03/10 08:36:36;;;;;;;;;;;2.30;99.90;;;;;;5098944;28;19996;-79
2022/03/10 08:39:01;;;;;;;;;;;2.30;99.90;;;;;;5081266;28;20148;-79
2022/03/10 08:41:27;;;;;;;;;;;2.30;99.90;;;;;;5081212;28;20453;-80
2022/03/10 08:43:53;;;;;;;;;;;2.40;99.90;;;;;;5082075;28;19908;-79
2022/03/10 08:46:18;;;;;;;;;;;2.30;99.90;;;;;;5102419;28;19920;-79
2022/03/10 08:48:45;;;;;;;;;;;2.50;99.90;;;;;;5104348;28;19912;-79
2022/03/10 08:51:11;;;;;;;;;;;2.70;99.90;;;;;;5103176;28;19939;-79
2022/03/10 08:53:36;;;;;;;;;;;2.60;99.90;;;;;;5102603;28;19991;-79
2022/03/10 08:56:03;;;;;;;;;;;4.10;99.90;;;;;;5102453;28;20124;-80
2022/03/10 08:58:29;;;;;;;;;;;2.80;99.90;;;;;;5102707;28;19916;-80
2022/03/10 09:00:55;;;;;;;;;;;2.80;99.90;;;;;;5103940;28;20028;-80
2022/03/10 09:03:20;;;;;;;;;;;2.80;99.90;;;;;;5104307;28;19947;-79
2022/03/10 09:05:46;;;;;;;;;;;2.80;99.50;;;;;;5090249;28;19912;-80
2022/03/10 09:08:12;;;;;;;;;;;2.70;99.20;;;;;;5072672;28;19951;-80
2022/03/10 09:10:39;;;;;;;;;;;2.70;99.40;;;;;;5108885;28;19908;-80
2022/03/10 09:13:05;;;;;;;;;;;2.70;99.60;;;;;;5111514;28;20104;-79
2022/03/10 09:15:31;;;;;;;;;;;2.80;99.90;;;;;;5104354;28;20000;-79
2022/03/10 09:17:57;;;;;;;;;;;2.90;99.90;;;;;;5103092;28;19912;-81
2022/03/10 09:20:23;;;;;;;;;;;3.10;99.70;;;;;;5103921;28;19947;-81
2022/03/10 09:22:48;;;;;;;;;;;3.20;97.40;;;;;;5102864;28;19908;-80
2022/03/10 09:25:16;;;;;;;;;;;3.30;95.20;;;;;;5102169;28;19915;-80
2022/03/10 09:27:42;;;;;;;;;;;3.50;94.00;;;;;;5102237;28;19908;-79
2022/03/10 09:30:08;;;;;;;;;;;3.50;92.10;;;;;;5102447;28;19915;-80
2022/03/10 09:32:38;;;;;;;;;;;3.70;91.90;;;;;;5102538;28;19994;-79
2022/03/10 09:35:07;;;;;;;;;;;3.80;90.40;;;;;;5101888;28;20219;-80
2022/03/10 09:37:33;;;;;;;;;;;3.80;88.70;;;;;;5083078;28;20344;-79
2022/03/10 09:39:58;;;;;;;;;;;3.80;86.60;;;;;;5082940;28;19908;-79
2022/03/10 09:42:28;;;;;;;;;;;3.70;88.50;;;;;;5083348;28;19908;-79
2022/03/10 09:44:58;;;;;;;;;;;3.70;88.70;;;;;;5102019;28;19935;-79
2022/03/10 09:47:23;;;;;;;;;;;4.30;89.10;;;;;;5080407;28;19927;-80
2022/03/10 09:49:49;;;;;;;;;;;3.50;89.40;;;;;;5081726;28;19916;-79
2022/03/10 09:52:14;;;;;;;;;;;3.50;90.20;;;;;;5081382;28;19911;-80
2022/03/10 09:54:41;;;;;;;;;;;3.70;90.00;;;;;;5080193;28;20352;-79
2022/03/10 09:57:07;;;;;;;;;;;2.80;89.80;;;;;;5080397;28;19949;-80
2022/03/10 09:59:33;;;;;;;;;;;3.70;89.00;;;;;;5082255;28;19943;-79
2022/03/10 10:02:01;;;;;;;;;;;3.80;89.70;;;;;;5081303;28;20375;-79
2022/03/10 10:04:29;;;;;;;;;;;4.10;88.90;;;;;;5079854;28;20018;-80
2022/03/10 10:07:02;;;;;;;;;;;4.20;87.20;;;;;;5081065;28;20463;-79
2022/03/10 10:09:47;;;;;;;;;;;4.30;87.30;;;;;;5079593;28;20501;-79
2022/03/10 10:12:13;;;;;;;;;;;4.30;87.10;;;;;;5081770;28;20007;-79
2022/03/10 10:14:40;;;;;;;;;;;4.40;87.00;;;;;;5082222;28;20003;-79
2022/03/10 10:17:06;;;;;;;;;;;4.30;83.60;;;;;;5083225;28;20218;-78
2022/03/10 10:19:33;;;;;;;;;;;4.40;85.30;;;;;;5083558;28;20414;-79
2022/03/10 10:22:16;;;;;;;;;;;5.50;86.40;;;;;;5082542;28;20348;-79
2022/03/10 10:24:49;;;;;;;;;;;4.50;86.60;;;;;;5082182;28;20265;-79
2022/03/10 10:27:19;;;;;;;;;;;4.30;83.80;;;;;;5089671;28;20021;-79
2022/03/10 10:29:49;;;;;;;;;;;4.40;87.30;;;;;;5083322;28;19951;-79
2022/03/10 10:32:25;;;;;;;;;;;4.30;87.20;;;;;;5080929;28;20116;-79
2022/03/10 10:35:10;;;;;;;;;;;4.30;85.30;;;;;;5080771;28;19920;-80
2022/03/10 10:37:40;;;;;;;;;;;4.20;85.30;;;;;;5078344;28;20702;-79
2022/03/10 10:40:06;;;;;;;;;;;4.10;86.10;;;;;;5078207;28;20264;-79
2022/03/10 10:42:33;;;;;;;;;;;4.10;85.20;;;;;;5079748;28;19908;-79
2022/03/10 10:45:00;;;;;;;;;;;4.10;86.10;;;;;;5080823;28;19908;-79
2022/03/10 10:47:26;;;;;;;;;;;4.10;87.80;;;;;;5099801;28;19970;-79
2022/03/10 10:49:55;;;;;;;;;;;4.10;83.00;;;;;;5101370;28;19918;-79
2022/03/10 10:52:21;;;;;;;;;;;5.30;86.40;;;;;;5102029;28;19912;-79
2022/03/10 10:54:46;;;;;;;;;;;4.20;87.40;;;;;;5101482;28;19969;-79
2022/03/10 10:57:19;;;;;;;;;;;3.90;84.60;;;;;;5102678;28;19918;-78
2022/03/10 10:59:45;;;;;;;;;;;4.00;86.40;;;;;;5083471;28;19918;-79
2022/03/10 11:02:16;;;;;;;;;;;3.90;82.60;;;;;;5102028;28;19908;-78
2022/03/10 11:04:43;;;;;;;;;;;3.70;85.00;;;;;;5101859;28;19951;-78
2022/03/10 11:07:10;;;;;;;;;;;3.70;86.40;;;;;;5101257;28;20378;-79
2022/03/10 11:09:36;;;;;;;;;;;3.80;87.60;;;;;;5102258;28;19908;-79
2022/03/10 11:12:02;;;;;;;;;;;4.00;86.50;;;;;;5107915;28;20280;-79
2022/03/10 11:14:27;;;;;;;;;;;3.90;84.50;;;;;;5109005;28;19915;-79
2022/03/10 11:16:54;;;;;;;;;;;4.00;79.80;;;;;;5107908;28;19912;-79
2022/03/10 11:19:25;;;;;;;;;;;4.00;81.60;;;;;;5107484;28;19961;-80
2022/03/10 11:21:51;;;;;;;;;;;4.20;81.40;;;;;;5104748;28;19907;-79
2022/03/10 11:24:35;;;;;;;;;;;4.20;82.20;;;;;;5100737;28;20386;-79
2022/03/10 11:27:14;;;;;;;;;;;4.20;79.30;;;;;;5100756;28;19907;-79
2022/03/10 11:29:41;;;;;;;;;;;4.30;81.60;;;;;;5084537;28;19954;-79
2022/03/10 11:32:09;;;;;;;;;;;4.30;81.20;;;;;;5101702;28;19950;-79
2022/03/10 11:34:55;;;;;;;;;;;4.40;79.70;;;;;;5100974;28;19916;-79
2022/03/10 11:37:33;;;;;;;;;;;4.60;75.30;;;;;;5101214;28;20615;-79
2022/03/10 11:39:59;;;;;;;;;;;4.60;69.80;;;;;;5102342;28;19908;-79
2022/03/10 11:42:24;;;;;;;;;;;4.70;71.60;;;;;;5101495;28;19995;-79
2022/03/10 11:45:04;;;;;;;;;;;4.70;68.50;;;;;;5099565;28;19908;-79
2022/03/10 11:47:29;;;;;;;;;;;4.70;71.50;;;;;;5081751;28;20137;-79
2022/03/10 11:49:55;;;;;;;;;;;4.80;67.10;;;;;;5099199;28;19908;-79
2022/03/10 11:52:22;;;;;;;;;;;4.80;67.50;;;;;;5099957;28;19915;-80
2022/03/10 11:55:12;;;;;;;;;;;4.80;67.20;;;;;;5081508;28;20403;-79
2022/03/10 11:57:42;;;;;;;;;;;4.70;66.60;;;;;;5101208;28;19943;-79
2022/03/10 12:00:07;;;;;;;;;;;4.50;64.80;;;;;;5101107;28;20483;-79
2022/03/10 12:02:41;;;;;;;;;;;4.50;69.10;;;;;;5100215;28;20207;-79
2022/03/10 12:05:07;;;;;;;;;;;4.60;67.90;;;;;;5099886;28;19912;-79
2022/03/10 12:07:33;;;;;;;;;;;4.50;64.70;;;;;;5100307;28;19965;-79
2022/03/10 12:10:06;;;;;;;;;;;4.60;64.80;;;;;;5101266;28;19908;-79
2022/03/10 12:12:37;;;;;;;;;;;4.70;65.30;;;;;;5100895;28;19911;-79
2022/03/10 12:15:21;;;;;;;;;;;4.60;66.20;;;;;;5101008;28;19926;-78
2022/03/10 12:17:54;;;;;;;;;;;4.70;63.00;;;;;;5104111;28;19999;-79
2022/03/10 12:20:21;;;;;;;;;;;4.70;64.00;;;;;;5111837;28;19908;-79
2022/03/10 12:22:58;;;;;;;;;;;4.80;68.50;;;;;;5115118;28;20455;-79
2022/03/10 12:25:24;;;;;;;;;;;4.80;67.60;;;;;;5111499;28;20220;-79
2022/03/10 12:27:53;;;;;;;;;;;5.60;68.30;;;;;;5104376;28;19995;-79
2022/03/10 12:30:20;;;;;;;;;;;4.80;69.20;;;;;;5104404;28;19907;-79
2022/03/10 12:32:48;;;;;;;;;;;4.90;68.40;;;;;;5104034;28;19980;-78
2022/03/10 12:35:14;;;;;;;;;;;4.90;65.00;;;;;;5104003;28;19967;-79
2022/03/10 12:37:45;;;;;;;;;;;4.80;63.90;;;;;;5111013;28;19916;-79
2022/03/10 12:40:16;;;;;;;;;;;4.70;63.30;;;;;;5106258;28;19931;-79
2022/03/10 12:42:41;;;;;;;;;;;4.90;58.90;;;;;;5102606;28;19919;-79
2022/03/10 12:45:07;;;;;;;;;;;4.90;57.50;;;;;;5084082;28;19907;-79
2022/03/10 12:47:33;;;;;;;;;;;5.20;55.20;;;;;;5101754;28;19919;-79
2022/03/10 12:49:59;;;;;;;;;;;5.50;56.40;;;;;;5102047;28;20524;-79
2022/03/10 12:52:27;;;;;;;;;;;6.00;56.70;;;;;;5101876;28;20126;-79
2022/03/10 12:54:56;;;;;;;;;;;6.60;55.20;;;;;;5102060;28;20254;-78
2022/03/10 12:57:21;;;;;;;;;;;6.80;51.80;;;;;;5101987;28;19908;-79
2022/03/10 12:59:48;;;;;;;;;;;6.80;50.60;;;;;;5083671;28;19919;-79
2022/03/10 13:02:17;;;;;;;;;;;6.40;51.20;;;;;;5101910;28;20306;-79
2022/03/10 13:04:53;;;;;;;;;;;6.70;55.60;;;;;;5102057;28;19964;-79
2022/03/10 13:07:21;;;;;;;;;;;7.00;53.20;;;;;;5102204;28;20390;-79
2022/03/10 13:10:07;;;;;;;;;;;7.10;50.70;;;;;;5102374;28;19947;-79
2022/03/10 13:12:33;;;;;;;;;;;7.30;50.20;;;;;;5083344;28;19969;-79
2022/03/10 13:15:00;;;;;;;;;;;7.40;50.80;;;;;;5102057;28;20192;-79
2022/03/10 13:17:35;;;;;;;;;;;7.60;50.40;;;;;;5102169;28;19970;-79
2022/03/10 13:20:01;;;;;;;;;;;7.60;48.60;;;;;;5101913;28;19908;-79
2022/03/10 13:22:28;;;;;;;;;;;7.50;49.30;;;;;;5101817;28;20318;-79
2022/03/10 13:24:53;;;;;;;;;;;7.30;49.30;;;;;;5101642;28;19908;-79
2022/03/10 13:27:20;;;;;;;;;;;7.10;50.60;;;;;;5102109;28;19908;-79
2022/03/10 13:29:50;;;;;;;;;;;7.00;50.10;;;;;;5102323;28;20084;-79
2022/03/10 13:32:16;;;;;;;;;;;6.80;50.00;;;;;;5101851;28;19957;-79
2022/03/10 13:34:42;;;;;;;;;;;7.20;50.90;;;;;;5102611;28;19916;-79
2022/03/10 13:37:09;;;;;;;;;;;7.70;50.50;;;;;;5084786;28;19938;-78
2022/03/10 13:39:36;;;;;;;;;;;7.80;48.30;;;;;;5102993;28;20002;-79
2022/03/10 13:42:03;;;;;;;;;;;6.40;48.10;;;;;;5084244;28;19908;-79
2022/03/10 13:44:28;;;;;;;;;;;7.40;48.00;;;;;;5083583;28;19957;-79
2022/03/10 13:47:07;;;;;;;;;;;6.90;47.40;;;;;;5103814;28;20344;-79
2022/03/10 13:49:46;;;;;;;;;;;7.70;49.30;;;;;;5103616;28;19915;-79
2022/03/10 13:52:13;;;;;;;;;;;6.20;49.90;;;;;;5102571;28;19908;-79
2022/03/10 13:54:38;;;;;;;;;;;6.00;51.60;;;;;;5101960;28;19916;-78
2022/03/10 13:57:04;;;;;;;;;;;6.20;51.60;;;;;;5103088;28;19921;-79
2022/03/10 13:59:30;;;;;;;;;;;6.20;50.90;;;;;;5102420;28;19911;-79
2022/03/10 14:01:56;;;;;;;;;;;6.30;50.60;;;;;;5102259;28;19969;-79
2022/03/10 14:04:21;;;;;;;;;;;6.50;50.40;;;;;;5101987;28;19911;-79
2022/03/10 14:06:48;;;;;;;;;;;6.50;49.10;;;;;;5101859;28;20486;-79
2022/03/10 14:09:21;;;;;;;;;;;6.40;47.60;;;;;;5102085;28;20310;-79
2022/03/10 14:11:50;;;;;;;;;;;6.10;49.40;;;;;;5082947;28;19912;-79
2022/03/10 14:14:16;;;;;;;;;;;5.90;49.40;;;;;;5101673;28;19966;-79
2022/03/10 14:16:52;;;;;;;;;;;5.50;51.90;;;;;;5101008;28;19954;-79
2022/03/10 14:19:33;;;;;;;;;;;5.40;53.20;;;;;;5101393;28;19908;-79
2022/03/10 14:22:00;;;;;;;;;;;5.30;52.10;;;;;;5100662;28;19915;-79
2022/03/10 14:24:25;;;;;;;;;;;5.10;53.50;;;;;;5100723;28;19908;-79
2022/03/10 14:26:52;;;;;;;;;;;5.00;52.60;;;;;;5101330;28;19934;-78
2022/03/10 14:29:19;;;;;;;;;;;4.90;52.40;;;;;;5101476;28;19998;-79
2022/03/10 14:31:45;;;;;;;;;;;4.80;53.10;;;;;;5101992;28;20437;-79
2022/03/10 14:34:11;;;;;;;;;;;4.70;54.00;;;;;;5083440;28;19920;-79
2022/03/10 14:36:36;;;;;;;;;;;4.70;54.90;;;;;;5101540;28;20444;-79